Terminal Aerodrome Forecast
Issued by NWS

Home | Current Version | Previous Version | Text Only | Print | Product List | Glossary Off
Versions: 1 2 3 4 5 6 7 8 9 10 11 12 13 14 15 16 17 18 19 20 21 22 23 24 25 26

000
FTUS43 KGRB 110900 AAA
TAFCWA
TAF AMD
KCWA 110900Z 1109/1206 13005KT 5SM -SHSN BKN025 OVC040
     FM111000 17004KT 1 1/2SM -SHSN OVC010
     FM111600 17004KT 3SM -FZDZSN OVC010
     FM112000 33006KT P6SM OVC013
     FM112300 33010G17KT P6SM BKN029
      AMD LTD TO CLD VIS AND WIND TIL 111200=

USA.gov is the U.S. government's official web portal to all federal, state and local government web resources and services.